Terminal Aerodrome Forecast
Issued by NWS

Home | Current Version | Previous Version | Graphics & Text | Print | Product List | Glossary On
Versions: 1 2 3 4 5 6 7 8 9 10 11 12 13 14 15 16
000
FTUS43 KMPX 161835 CCA
TAFRNH
TAF COR
KRNH 161835Z 1618/1718 32010G16KT P6SM OVC035
     FM170200 31006KT P6SM SCT030
     FM171500 35009KT P6SM SKC=

USA.gov is the U.S. government's official web portal to all federal, state and local government web resources and services.